Time;durP1;ratioP1;P1;durP2;ratioP2;P2;SDS_P1;SDS_P2;PMS_P1;PMS_P2;Temp;Humidity;BMP_temperature;BMP_pressure;BME280_temperature;BME280_humidity;BME280_pressure;Samples;Min_cycle;Max_cycle;Signal;HPM_P1;HPM_P2
2020/12/01 00:00:25;;;;;;;45.45;22.50;;;;;;;-2.01;100.00;96337.16;1031982;28;20253;-72
2020/12/01 00:00:56;;;;;;;44.33;22.58;;;;;;;-1.95;100.00;96348.97;1027840;28;20027;-72
2020/12/01 00:01:27;;;;;;;49.28;22.90;;;;;;;-2.03;100.00;96338.19;1036095;28;20269;-71
2020/12/01 00:01:57;;;;;;;47.90;23.08;;;;;;;-2.06;100.00;96339.19;1036124;28;20057;-71
2020/12/01 00:02:28;;;;;;;47.92;23.45;;;;;;;-2.01;100.00;96331.94;1027892;28;20308;-72
2020/12/01 00:02:59;;;;;;;47.55;23.50;;;;;;;-2.05;100.00;96337.44;1031969;28;20368;-71
2020/12/01 00:03:30;;;;;;;47.10;22.45;;;;;;;-2.08;100.00;96341.03;1031966;28;20026;-72
2020/12/01 00:04:00;;;;;;;44.85;22.50;;;;;;;-2.10;100.00;96332.50;1028049;28;20030;-71
2020/12/01 00:04:31;;;;;;;49.20;23.23;;;;;;;-2.18;100.00;96330.31;1031931;28;20018;-72
2020/12/01 00:05:03;;;;;;;46.50;22.50;;;;;;;-2.24;100.00;96320.28;1040114;28;20053;-71
2020/12/01 00:05:34;;;;;;;48.70;23.35;;;;;;;-2.22;100.00;96322.78;1032009;28;20030;-71
2020/12/01 00:06:05;;;;;;;47.90;23.02;;;;;;;-2.11;100.00;96334.28;1028052;28;20254;-71
2020/12/01 00:06:36;;;;;;;47.05;22.25;;;;;;;-2.45;100.00;96295.50;1031947;28;20112;-71
2020/12/01 00:07:06;;;;;;;48.05;23.65;;;;;;;-2.17;100.00;96334.59;1036032;28;20124;-71
2020/12/01 00:07:38;;;;;;;47.80;22.95;;;;;;;-2.19;100.00;96330.44;1028014;28;20029;-71
2020/12/01 00:08:09;;;;;;;44.55;22.17;;;;;;;-2.15;100.00;96334.53;1036102;28;20021;-71
2020/12/01 00:08:40;;;;;;;50.88;24.67;;;;;;;-2.21;100.00;96320.13;1032072;28;20264;-72
2020/12/01 00:09:11;;;;;;;48.55;23.52;;;;;;;-2.21;100.00;96317.50;1028143;28;20081;-71
2020/12/01 00:09:43;;;;;;;49.67;22.95;;;;;;;-2.24;100.00;96325.47;1044184;28;20024;-71
2020/12/01 00:10:15;;;;;;;45.97;23.58;;;;;;;-2.20;100.00;96321.78;1044386;28;20647;-71
2020/12/01 00:10:46;;;;;;;44.88;21.52;;;;;;;-2.19;100.00;96325.22;1040072;28;20267;-71
2020/12/01 00:11:17;;;;;;;45.92;23.38;;;;;;;-2.15;100.00;96326.72;1027561;28;20353;-71
2020/12/01 00:11:48;;;;;;;49.97;23.88;;;;;;;-2.29;100.00;96310.13;1036071;28;20097;-71
2020/12/01 00:12:18;;;;;;;47.45;23.40;;;;;;;-2.25;100.00;96312.56;1028049;28;20403;-71
2020/12/01 00:12:49;;;;;;;48.03;23.02;;;;;;;-2.15;100.00;96330.16;1035798;28;20091;-72
2020/12/01 00:13:20;;;;;;;47.97;23.75;;;;;;;-2.28;100.00;96309.22;1036064;28;20025;-71
2020/12/01 00:13:51;;;;;;;47.63;22.73;;;;;;;-2.16;100.00;96330.22;1036121;28;20132;-71
2020/12/01 00:14:22;;;;;;;46.47;21.35;;;;;;;-2.20;100.00;96324.38;1040149;28;20252;-72
2020/12/01 00:14:53;;;;;;;49.10;22.77;;;;;;;-2.24;100.00;96312.47;1039917;28;20028;-71
2020/12/01 00:15:24;;;;;;;48.80;23.27;;;;;;;-2.14;100.00;96326.63;1031679;28;20018;-71
2020/12/01 00:15:55;;;;;;;47.58;22.23;;;;;;;-2.26;100.00;96306.53;1035985;28;20523;-72
2020/12/01 00:16:26;;;;;;;49.25;23.98;;;;;;;-2.17;100.00;96326.81;1035869;28;20117;-71
2020/12/01 00:16:57;;;;;;;49.33;23.55;;;;;;;-2.13;100.00;96317.88;1035906;28;20045;-71
2020/12/01 00:17:27;;;;;;;51.20;25.05;;;;;;;-2.17;100.00;96321.59;1035980;28;20029;-73
2020/12/01 00:17:58;;;;;;;49.42;23.60;;;;;;;-2.19;100.00;96320.84;1036036;28;20029;-72
2020/12/01 00:18:29;;;;;;;45.92;22.10;;;;;;;-2.15;100.00;96319.75;1035957;28;20071;-73
2020/12/01 00:19:00;;;;;;;48.78;24.25;;;;;;;-2.10;100.00;96322.91;1031843;28;20030;-72
2020/12/01 00:19:31;;;;;;;43.45;22.20;;;;;;;-2.15;100.00;96306.75;1036062;28;20470;-71
2020/12/01 00:20:04;;;;;;;48.58;23.00;;;;;;;-2.11;100.00;96313.47;1027995;28;20022;-71
2020/12/01 00:20:35;;;;;;;44.05;22.25;;;;;;;-2.17;100.00;96316.41;1035914;28;20018;-72
2020/12/01 00:21:16;;;;;;;46.10;22.48;;;;;;;-2.25;100.00;96310.78;1035917;28;20267;-72
2020/12/01 00:21:46;;;;;;;47.30;22.95;;;;;;;-2.27;100.00;96315.25;1031970;28;20116;-71
2020/12/01 00:22:18;;;;;;;45.20;22.23;;;;;;;-2.31;100.00;96313.75;1040040;28;20272;-71
2020/12/01 00:22:50;;;;;;;43.78;22.50;;;;;;;-2.33;100.00;96302.63;1039898;28;20060;-71
2020/12/01 00:23:21;;;;;;;47.10;22.85;;;;;;;-2.24;100.00;96306.44;1031914;28;20289;-72
2020/12/01 00:23:52;;;;;;;46.35;22.02;;;;;;;-2.26;100.00;96306.53;1036022;28;20253;-71
2020/12/01 00:24:22;;;;;;;45.72;22.77;;;;;;;-2.27;100.00;96303.06;1040002;28;20033;-73
2020/12/01 00:24:53;;;;;;;45.90;21.95;;;;;;;-2.26;100.00;96303.94;1027751;28;20121;-71
2020/12/01 00:25:24;;;;;;;46.95;22.85;;;;;;;-2.30;100.00;96289.41;1031909;28;20030;-71
2020/12/01 00:25:55;;;;;;;47.95;22.52;;;;;;;-2.45;100.00;96291.16;1031914;28;20038;-70
2020/12/01 00:26:25;;;;;;;44.45;21.70;;;;;;;-2.36;100.00;96297.59;1036066;28;20034;-72
2020/12/01 00:26:56;;;;;;;47.28;23.20;;;;;;;-2.31;100.00;96303.34;1027911;28;20015;-71
2020/12/01 00:27:27;;;;;;;44.80;22.30;;;;;;;-2.37;100.00;96273.34;1031947;28;20360;-71
2020/12/01 00:27:58;;;;;;;43.35;22.13;;;;;;;-2.23;100.00;96298.56;1035956;28;20022;-71
2020/12/01 00:28:29;;;;;;;45.92;22.60;;;;;;;-2.22;100.00;96296.78;1040013;28;20028;-71
2020/12/01 00:28:59;;;;;;;43.95;20.90;;;;;;;-2.23;100.00;96306.38;1027865;28;20042;-71
2020/12/01 00:29:31;;;;;;;46.90;22.38;;;;;;;-2.24;100.00;96304.69;1036047;28;20022;-71
2020/12/01 00:30:07;;;;;;;45.63;22.92;;;;;;;-2.19;100.00;96294.00;1032341;28;20022;-71
2020/12/01 00:30:40;;;;;;;48.13;23.55;;;;;;;-2.26;100.00;96296.13;1027838;28;20761;-71
2020/12/01 00:31:11;;;;;;;42.90;21.13;;;;;;;-2.49;100.00;96272.28;1035887;28;20269;-71
2020/12/01 00:31:43;;;;;;;43.05;21.42;;;;;;;-2.38;100.00;96296.84;1031815;28;20265;-71
2020/12/01 00:32:13;;;;;;;48.45;24.02;;;;;;;-2.38;100.00;96294.25;1027893;28;20298;-71
2020/12/01 00:32:45;;;;;;;42.90;22.27;;;;;;;-2.35;100.00;96297.50;1039963;28;20674;-75
2020/12/01 00:33:15;;;;;;;45.85;21.67;;;;;;;-2.32;100.00;96291.25;1032152;28;20050;-71
2020/12/01 00:33:46;;;;;;;42.58;21.10;;;;;;;-2.37;100.00;96293.28;1032031;28;20764;-70
2020/12/01 00:34:17;;;;;;;45.50;22.05;;;;;;;-2.44;100.00;96290.19;1036072;28;20018;-70
2020/12/01 00:34:48;;;;;;;45.08;23.15;;;;;;;-2.40;100.00;96291.72;1035755;28;20022;-72
2020/12/01 00:35:21;;;;;;;48.35;23.75;;;;;;;-2.37;100.00;96288.09;1027904;28;20366;-71
2020/12/01 00:35:52;;;;;;;47.42;22.48;;;;;;;-2.44;100.00;96289.38;1031985;28;20495;-71
2020/12/01 00:36:26;;;;;;;47.72;22.48;;;;;;;-2.39;100.00;96287.34;1031787;28;20274;-71
2020/12/01 00:36:57;;;;;;;47.53;23.60;;;;;;;-2.42;100.00;96284.91;1031772;28;20019;-71
2020/12/01 00:37:28;;;;;;;45.35;22.33;;;;;;;-2.43;100.00;96278.88;1044171;28;20266;-71
2020/12/01 00:37:59;;;;;;;47.58;22.80;;;;;;;-2.47;100.00;96274.81;1031852;28;20264;-71
2020/12/01 00:38:29;;;;;;;47.10;23.45;;;;;;;-2.44;100.00;96281.56;1023819;28;20037;-72
2020/12/01 00:39:00;;;;;;;49.72;23.13;;;;;;;-2.50;100.00;96256.78;1031853;28;20034;-71
2020/12/01 00:39:31;;;;;;;47.92;22.52;;;;;;;-2.45;100.00;96262.53;1032224;28;20049;-71
2020/12/01 00:40:04;;;;;;;45.65;22.27;;;;;;;-2.47;100.00;96282.59;1040139;28;20022;-71
2020/12/01 00:40:35;;;;;;;43.83;22.73;;;;;;;-2.49;100.00;96269.69;1031768;28;20037;-72
2020/12/01 00:41:07;;;;;;;48.28;23.52;;;;;;;-2.39;100.00;96284.75;1035764;28;20334;-71
2020/12/01 00:41:38;;;;;;;49.05;23.45;;;;;;;-2.47;100.00;96272.19;1040259;28;20260;-71
2020/12/01 00:42:08;;;;;;;52.22;23.73;;;;;;;-2.40;100.00;96283.91;1027946;28;20277;-71
2020/12/01 00:42:39;;;;;;;47.30;22.88;;;;;;;-2.34;100.00;96280.94;1035937;28;20308;-74
2020/12/01 00:43:10;;;;;;;52.92;25.35;;;;;;;-2.32;100.00;96283.47;1044086;28;20100;-71
2020/12/01 00:43:41;;;;;;;48.45;23.25;;;;;;;-2.36;100.00;96279.38;1035922;28;20333;-71
2020/12/01 00:44:11;;;;;;;50.53;23.95;;;;;;;-2.40;100.00;96272.66;1035981;28;20108;-72
2020/12/01 00:44:42;;;;;;;48.78;21.83;;;;;;;-2.47;100.00;96252.22;1039920;28;20607;-72
2020/12/01 00:45:14;;;;;;;46.92;23.80;;;;;;;-2.27;100.00;96279.66;1027836;28;20034;-71
2020/12/01 00:45:45;;;;;;;46.80;22.63;;;;;;;-2.30;100.00;96274.66;1031936;28;20478;-72
2020/12/01 00:46:15;;;;;;;47.70;23.45;;;;;;;-2.30;100.00;96284.22;1044124;28;20248;-71
2020/12/01 00:46:46;;;;;;;54.33;23.95;;;;;;;-2.33;100.00;96280.03;1035802;28;20072;-72
2020/12/01 00:47:17;;;;;;;44.78;22.45;;;;;;;-2.34;100.00;96267.13;1036008;28;20520;-71
2020/12/01 00:47:48;;;;;;;45.38;23.20;;;;;;;-2.29;100.00;96278.91;1031794;28;20253;-72
2020/12/01 00:48:19;;;;;;;49.63;23.63;;;;;;;-2.33;100.00;96276.59;1039974;28;20024;-71
2020/12/01 00:48:50;;;;;;;47.42;24.27;;;;;;;-2.34;100.00;96277.53;1031776;28;20519;-71
2020/12/01 00:49:21;;;;;;;45.80;22.90;;;;;;;-2.31;100.00;96277.34;1035937;28;20260;-70
2020/12/01 00:49:52;;;;;;;48.97;24.48;;;;;;;-2.29;100.00;96281.53;1027848;28;20508;-72
2020/12/01 00:50:23;;;;;;;47.20;22.73;;;;;;;-2.27;100.00;96278.84;1039994;28;20060;-71
2020/12/01 00:50:55;;;;;;;45.42;22.65;;;;;;;-2.33;100.00;96271.41;1039820;28;20478;-71
2020/12/01 00:51:26;;;;;;;43.08;21.95;;;;;;;-2.24;100.00;96283.88;1036026;28;20256;-71
2020/12/01 00:51:58;;;;;;;51.10;23.48;;;;;;;-2.20;100.00;96281.94;1043909;28;20264;-72
2020/12/01 00:52:29;;;;;;;44.63;22.17;;;;;;;-2.21;100.00;96285.44;1040023;28;20525;-71
2020/12/01 00:52:59;;;;;;;44.13;21.83;;;;;;;-2.30;100.00;96282.47;1027744;28;20300;-72
2020/12/01 00:53:30;;;;;;;49.03;23.45;;;;;;;-2.26;100.00;96288.31;1031798;28;20030;-70
2020/12/01 00:54:03;;;;;;;50.75;24.75;;;;;;;-2.29;100.00;96283.28;1027770;28;20026;-71
2020/12/01 00:54:34;;;;;;;46.97;22.20;;;;;;;-2.28;100.00;96292.78;1035700;28;20022;-72
2020/12/01 00:55:05;;;;;;;52.90;22.95;;;;;;;-2.45;100.00;96269.50;1035805;28;20618;-72
2020/12/01 00:55:36;;;;;;;47.45;23.60;;;;;;;-2.33;100.00;96279.22;1035880;28;20028;-71
2020/12/01 00:56:08;;;;;;;46.60;21.65;;;;;;;-2.27;100.00;96278.84;1027693;28;20273;-71
2020/12/01 00:56:39;;;;;;;47.78;22.10;;;;;;;-2.48;100.00;96242.75;1035830;28;20291;-74
2020/12/01 00:57:11;;;;;;;47.35;23.52;;;;;;;-2.37;100.00;96267.28;1031713;28;20729;-71
2020/12/01 00:57:42;;;;;;;49.88;23.60;;;;;;;-2.44;100.00;96261.59;1031783;28;20030;-71
2020/12/01 00:58:14;;;;;;;44.53;21.98;;;;;;;-2.44;100.00;96259.00;1035887;28;20614;-71
2020/12/01 00:58:45;;;;;;;48.15;23.45;;;;;;;-2.52;100.00;96262.06;1039935;28;20494;-72
2020/12/01 00:59:16;;;;;;;52.90;24.15;;;;;;;-2.45;100.00;96261.72;1027804;28;20349;-71
2020/12/01 00:59:46;;;;;;;48.45;23.08;;;;;;;-2.43;100.00;96262.47;1031932;28;20022;-71
2020/12/01 01:00:20;;;;;;;45.85;22.45;;;;;;;-2.44;100.00;96266.78;1031814;28;20085;-71
2020/12/01 01:00:50;;;;;;;48.55;22.20;;;;;;;-2.38;100.00;96270.84;1031660;28;20060;-71
2020/12/01 01:01:22;;;;;;;45.33;22.63;;;;;;;-2.32;100.00;96266.09;1039925;28;20262;-71
2020/12/01 01:01:52;;;;;;;46.45;22.63;;;;;;;-2.36;100.00;96248.16;1044002;28;20017;-71
2020/12/01 01:02:23;;;;;;;45.05;22.15;;;;;;;-2.49;100.00;96251.50;1035828;28;20340;-71
2020/12/01 01:02:54;;;;;;;46.42;21.85;;;;;;;-2.44;100.00;96260.78;1023780;29;20031;-71
2020/12/01 01:03:25;;;;;;;46.92;23.00;;;;;;;-2.52;100.00;96245.63;1023771;28;20138;-71
2020/12/01 01:03:56;;;;;;;46.10;23.10;;;;;;;-2.58;100.00;96233.78;1035964;28;20036;-71
2020/12/01 01:04:27;;;;;;;48.15;23.55;;;;;;;-2.47;100.00;96260.03;1031851;28;20264;-71
2020/12/01 01:04:58;;;;;;;43.20;21.27;;;;;;;-2.52;100.00;96258.63;1031712;28;20077;-71
2020/12/01 01:05:29;;;;;;;46.10;21.63;;;;;;;-2.49;100.00;96263.63;1035901;28;20080;-71
2020/12/01 01:05:59;;;;;;;46.55;23.35;;;;;;;-2.49;100.00;96258.44;1035918;28;20029;-71
2020/12/01 01:06:30;;;;;;;45.20;22.00;;;;;;;-2.54;100.00;96253.50;1031523;28;20116;-71
2020/12/01 01:07:01;;;;;;;46.63;21.67;;;;;;;-2.49;100.00;96259.28;1031456;28;20057;-71
2020/12/01 01:07:32;;;;;;;42.60;22.23;;;;;;;-2.48;100.00;96262.72;1035801;28;20025;-71
2020/12/01 01:08:03;;;;;;;44.75;22.77;;;;;;;-2.51;100.00;96257.69;1031972;28;20018;-71
2020/12/01 01:08:34;;;;;;;46.30;22.35;;;;;;;-2.55;100.00;96259.63;1031670;28;20449;-71
2020/12/01 01:09:06;;;;;;;50.22;23.88;;;;;;;-2.49;100.00;96268.81;1039874;28;20461;-71
2020/12/01 01:09:36;;;;;;;47.92;23.00;;;;;;;-2.46;100.00;96263.47;1031803;28;20026;-71
2020/12/01 01:10:15;;;;;;;46.63;22.52;;;;;;;-2.45;100.00;96264.31;1031919;28;20316;-71
2020/12/01 01:10:46;;;;;;;47.63;22.45;;;;;;;-2.52;100.00;96263.81;1027605;28;20499;-72
2020/12/01 01:11:17;;;;;;;46.30;22.77;;;;;;;-2.47;100.00;96265.22;1027839;28;20270;-71
2020/12/01 01:11:47;;;;;;;47.58;23.98;;;;;;;-2.45;100.00;96266.91;1039954;28;20049;-70
2020/12/01 01:12:18;;;;;;;51.35;23.98;;;;;;;-2.51;100.00;96261.13;1035783;28;20314;-71
2020/12/01 01:12:49;;;;;;;53.92;24.98;;;;;;;-2.50;100.00;96267.16;1031823;28;20022;-71
2020/12/01 01:13:20;;;;;;;48.28;22.52;;;;;;;-2.60;100.00;96251.25;1039888;28;20470;-71
2020/12/01 01:13:51;;;;;;;47.50;22.27;;;;;;;-2.53;100.00;96268.16;1027757;28;20034;-71
2020/12/01 01:14:21;;;;;;;46.83;22.75;;;;;;;-2.58;100.00;96267.59;1039972;28;20030;-71
2020/12/01 01:14:52;;;;;;;45.75;23.25;;;;;;;-2.56;100.00;96260.56;1035736;28;20033;-70
2020/12/01 01:15:25;;;;;;;47.80;22.52;;;;;;;-2.51;100.00;96262.88;1031609;28;20045;-71
2020/12/01 01:15:57;;;;;;;48.53;23.17;;;;;;;-2.56;100.00;96260.56;1044100;28;20076;-71
2020/12/01 01:16:28;;;;;;;46.05;21.58;;;;;;;-2.53;100.00;96251.75;1039761;28;20288;-71
2020/12/01 01:16:59;;;;;;;46.10;22.15;;;;;;;-2.48;100.00;96262.72;1027653;28;20755;-71
2020/12/01 01:17:30;;;;;;;45.67;22.73;;;;;;;-2.55;100.00;96244.03;1031805;28;20104;-70
2020/12/01 01:18:01;;;;;;;47.42;21.98;;;;;;;-2.50;100.00;96248.97;1027742;28;20026;-71
2020/12/01 01:18:32;;;;;;;46.85;22.88;;;;;;;-2.52;100.00;96251.66;1031731;28;20030;-72
2020/12/01 01:19:05;;;;;;;45.47;22.17;;;;;;;-2.51;100.00;96252.47;1035752;28;20264;-71
2020/12/01 01:19:36;;;;;;;45.22;22.70;;;;;;;-2.45;100.00;96243.50;1031711;28;20265;-71
2020/12/01 01:20:07;;;;;;;47.17;21.65;;;;;;;-2.54;100.00;96250.09;1031899;28;20337;-71
2020/12/01 01:20:38;;;;;;;44.38;22.10;;;;;;;-2.52;100.00;96245.63;1031762;28;20033;-71
2020/12/01 01:21:09;;;;;;;41.10;21.17;;;;;;;-2.50;100.00;96248.97;1039846;28;20575;-70
2020/12/01 01:21:41;;;;;;;44.95;22.25;;;;;;;-2.52;100.00;96243.84;1039846;28;20259;-71
2020/12/01 01:22:12;;;;;;;47.05;22.75;;;;;;;-2.58;100.00;96249.38;1027632;28;20027;-71
2020/12/01 01:22:43;;;;;;;48.00;22.35;;;;;;;-2.55;100.00;96248.41;1031721;28;20807;-71
2020/12/01 01:23:14;;;;;;;50.50;22.90;;;;;;;-2.56;100.00;96239.78;1039862;28;20260;-71
2020/12/01 01:23:45;;;;;;;46.78;22.98;;;;;;;-2.51;100.00;96245.53;1035813;28;20541;-71
2020/12/01 01:24:17;;;;;;;47.88;22.75;;;;;;;-2.53;100.00;96242.16;1035857;28;20415;-71
2020/12/01 01:24:49;;;;;;;47.25;22.90;;;;;;;-2.50;100.00;96247.19;1027602;28;20306;-72
2020/12/01 01:25:20;;;;;;;48.25;23.02;;;;;;;-2.52;100.00;96243.84;1035792;28;20745;-71
2020/12/01 01:25:51;;;;;;;50.72;24.40;;;;;;;-2.54;100.00;96250.09;1035949;28;20752;-71
2020/12/01 01:26:22;;;;;;;49.80;23.88;;;;;;;-2.59;100.00;96247.75;1023877;29;20266;-71
2020/12/01 01:26:53;;;;;;;50.03;23.88;;;;;;;-2.51;100.00;96242.94;1027558;28;20110;-72
2020/12/01 01:27:24;;;;;;;47.92;23.25;;;;;;;-2.53;100.00;96247.38;1052400;28;20056;-71
2020/12/01 01:27:55;;;;;;;46.75;22.48;;;;;;;-2.55;100.00;96251.81;1031838;28;20253;-71
2020/12/01 01:28:25;;;;;;;45.13;21.77;;;;;;;-2.52;100.00;96254.25;1035771;28;20014;-72
2020/12/01 01:28:56;;;;;;;47.08;22.65;;;;;;;-2.47;100.00;96243.59;1035726;28;20034;-71
2020/12/01 01:29:27;;;;;;;43.25;22.30;;;;;;;-2.53;100.00;96231.78;1035970;28;20029;-71
2020/12/01 01:29:58;;;;;;;50.97;24.05;;;;;;;-2.69;100.00;96220.59;1035842;28;20024;-72
2020/12/01 01:30:29;;;;;;;47.53;23.17;;;;;;;-2.59;100.00;96241.72;1031769;28;20030;-71
2020/12/01 01:31:00;;;;;;;49.03;23.05;;;;;;;-2.61;100.00;96238.34;1039785;28;20022;-71
2020/12/01 01:31:31;;;;;;;51.60;24.30;;;;;;;-2.61;100.00;96222.75;1031756;28;20723;-72
2020/12/01 01:32:02;;;;;;;44.22;22.15;;;;;;;-2.52;100.00;96233.47;1043959;28;20099;-71
2020/12/01 01:32:33;;;;;;;44.17;21.08;;;;;;;-2.52;100.00;96238.66;1031870;28;20534;-72
2020/12/01 01:33:05;;;;;;;45.80;21.67;;;;;;;-2.58;100.00;96239.00;1027694;28;20023;-72
2020/12/01 01:33:36;;;;;;;47.15;22.35;;;;;;;-2.60;100.00;96227.84;1031999;28;20637;-71
2020/12/01 01:34:06;;;;;;;45.88;22.17;;;;;;;-2.56;100.00;96234.56;1032086;28;20261;-70
2020/12/01 01:34:37;;;;;;;47.30;22.15;;;;;;;-2.55;100.00;96233.63;1043958;28;20016;-72
2020/12/01 01:35:08;;;;;;;45.97;21.90;;;;;;;-2.48;100.00;96236.72;1039924;28;20095;-71
2020/12/01 01:35:39;;;;;;;45.60;22.30;;;;;;;-2.46;100.00;96232.25;1027927;28;20094;-71
2020/12/01 01:36:10;;;;;;;44.20;22.35;;;;;;;-2.43;100.00;96233.84;1039710;28;20112;-71
2020/12/01 01:36:41;;;;;;;45.80;22.15;;;;;;;-2.42;100.00;96231.16;1031657;28;20030;-71
2020/12/01 01:37:12;;;;;;;47.92;22.58;;;;;;;-2.51;100.00;96232.53;1035828;28;20026;-71
2020/12/01 01:37:43;;;;;;;45.80;21.23;;;;;;;-2.52;100.00;96228.25;1039961;28;20017;-71
2020/12/01 01:38:13;;;;;;;47.00;22.92;;;;;;;-2.53;100.00;96225.75;1023933;29;20031;-71
2020/12/01 01:38:44;;;;;;;48.72;23.15;;;;;;;-2.60;100.00;96232.22;1031628;28;20517;-74
2020/12/01 01:39:15;;;;;;;45.45;22.05;;;;;;;-2.56;100.00;96225.91;1027898;28;20034;-71
2020/12/01 01:39:49;;;;;;;47.58;22.63;;;;;;;-2.62;100.00;96219.31;1031972;28;20081;-70
2020/12/01 01:40:23;;;;;;;46.92;22.02;;;;;;;-2.62;100.00;96215.88;1039884;28;20018;-71
2020/12/01 01:40:56;;;;;;;47.83;21.40;;;;;;;-2.47;100.00;96226.22;1035562;28;20253;-71
2020/12/01 01:41:29;;;;;;;46.70;22.48;;;;;;;-2.49;100.00;96220.28;1031798;28;20286;-71
2020/12/01 01:42:04;;;;;;;42.80;21.42;;;;;;;-2.59;100.00;96228.72;1039765;28;20256;-72
2020/12/01 01:42:35;;;;;;;46.72;21.92;;;;;;;-2.55;100.00;96225.81;1031794;28;20619;-72
2020/12/01 01:43:06;;;;;;;43.90;21.02;;;;;;;-2.55;100.00;96230.19;1035686;28;20261;-72
2020/12/01 01:43:37;;;;;;;47.92;22.13;;;;;;;-2.61;100.00;96228.78;1027877;28;20031;-72
2020/12/01 01:44:17;;;;;;;44.30;22.63;;;;;;;-2.57;100.00;96225.09;1044072;28;20052;-72
2020/12/01 01:44:48;;;;;;;46.28;23.45;;;;;;;-2.55;100.00;96232.78;1032471;28;20049;-70
2020/12/01 01:45:37;;;;;;;47.13;22.52;;;;;;;-2.53;100.00;96221.38;1045524;28;20271;-71
2020/12/01 01:46:27;;;;;;;41.38;20.65;;;;;;;-2.44;100.00;96225.19;1044046;28;20512;-71
2020/12/01 01:47:09;;;;;;;47.17;21.23;;;;;;;-2.48;100.00;96227.13;1027633;28;20266;-71
2020/12/01 01:47:40;;;;;;;43.63;20.98;;;;;;;-2.44;100.00;96225.19;1040228;28;20339;-71
2020/12/01 01:48:16;;;;;;;45.88;21.40;;;;;;;-2.55;100.00;96228.44;1035797;28;20307;-71
2020/12/01 01:48:47;;;;;;;44.95;21.23;;;;;;;-2.51;100.00;96229.94;1031726;28;20052;-71
2020/12/01 01:49:20;;;;;;;44.97;20.67;;;;;;;-2.50;100.00;96226.41;1035812;28;20610;-71
2020/12/01 01:49:55;;;;;;;44.40;21.42;;;;;;;-2.44;100.00;96229.56;1031755;28;20018;-71
2020/12/01 01:50:28;;;;;;;47.50;22.63;;;;;;;-2.59;100.00;96221.75;1039893;28;20300;-71
2020/12/01 01:51:15;;;;;;;43.65;21.90;;;;;;;-2.51;100.00;96218.69;1043874;28;20265;-71
2020/12/01 01:51:49;;;;;;;41.28;20.73;;;;;;;-2.62;100.00;96200.28;1031713;28;20669;-71
2020/12/01 01:52:24;;;;;;;46.83;21.10;;;;;;;-2.45;100.00;96222.72;1035744;28;20308;-72
2020/12/01 01:52:55;;;;;;;47.80;22.40;;;;;;;-2.50;100.00;96225.56;1035639;28;20344;-71
2020/12/01 01:53:26;;;;;;;44.90;22.38;;;;;;;-2.54;100.00;96224.91;1044016;28;20743;-71
2020/12/01 01:53:57;;;;;;;46.05;21.98;;;;;;;-2.61;100.00;96213.19;1035714;28;20018;-72
2020/12/01 01:54:28;;;;;;;49.40;23.75;;;;;;;-2.52;100.00;96215.25;1031786;28;20023;-71
2020/12/01 01:55:05;;;;;;;47.38;21.58;;;;;;;-2.50;100.00;96230.78;1035695;28;20517;-72
2020/12/01 01:55:36;;;;;;;46.67;21.95;;;;;;;-2.49;100.00;96229.81;1023776;28;20023;-71
2020/12/01 01:56:07;;;;;;;46.13;22.42;;;;;;;-2.47;100.00;96220.19;1031584;28;20661;-71
2020/12/01 01:56:40;;;;;;;48.13;23.13;;;;;;;-2.65;100.00;96183.09;1035686;28;20037;-72
2020/12/01 01:57:11;;;;;;;49.22;24.13;;;;;;;-2.48;100.00;96216.75;1027681;28;20675;-71
2020/12/01 01:57:42;;;;;;;47.47;23.00;;;;;;;-2.49;100.00;96222.88;1048032;28;20646;-71
2020/12/01 01:58:14;;;;;;;46.85;22.85;;;;;;;-2.43;100.00;96218.25;1031789;28;20253;-72
2020/12/01 01:58:45;;;;;;;44.08;23.65;;;;;;;-2.46;100.00;96216.66;1031528;28;20352;-72
2020/12/01 01:59:25;;;;;;;46.17;22.55;;;;;;;-2.52;100.00;96207.47;1039905;28;20272;-71
2020/12/01 01:59:57;;;;;;;47.17;21.73;;;;;;;-2.49;100.00;96216.81;1027654;28;20254;-71
2020/12/01 02:00:44;;;;;;;44.60;21.88;;;;;;;-2.45;100.00;96217.50;1039784;28;20652;-72
2020/12/01 02:01:19;;;;;;;44.40;21.85;;;;;;;-2.36;100.00;96216.97;1035901;28;20634;-71
2020/12/01 02:01:50;;;;;;;44.17;21.38;;;;;;;-2.32;100.00;96219.28;1031686;28;20567;-72
2020/12/01 02:02:21;;;;;;;43.17;21.38;;;;;;;-2.30;100.00;96214.00;1035799;28;20287;-71
2020/12/01 02:02:52;;;;;;;40.63;20.25;;;;;;;-2.24;100.00;96211.03;1031587;28;20249;-71
2020/12/01 02:03:27;;;;;;;45.72;22.08;;;;;;;-2.33;100.00;96206.38;1035925;28;20781;-71
2020/12/01 02:04:02;;;;;;;45.08;21.67;;;;;;;-2.33;100.00;96203.78;1035814;28;20022;-71
2020/12/01 02:04:33;;;;;;;45.60;21.95;;;;;;;-2.32;100.00;96208.88;1035722;28;20284;-72
2020/12/01 02:05:04;;;;;;;45.38;22.63;;;;;;;-2.36;100.00;96207.38;1031741;28;20270;-71
2020/12/01 02:05:35;;;;;;;46.08;23.65;;;;;;;-2.40;100.00;96189.44;1035836;28;20447;-71
2020/12/01 02:06:14;;;;;;;44.55;22.02;;;;;;;-2.29;100.00;96205.28;1043962;28;20021;-71
2020/12/01 02:06:49;;;;;;;47.50;22.88;;;;;;;-2.35;100.00;96203.88;1027750;28;20258;-72
2020/12/01 02:07:20;;;;;;;49.08;21.27;;;;;;;-2.32;100.00;96202.84;1035813;28;20108;-71
2020/12/01 02:07:51;;;;;;;42.33;21.50;;;;;;;-2.30;100.00;96206.19;1031691;28;20846;-71
2020/12/01 02:08:22;;;;;;;47.25;23.10;;;;;;;-2.33;100.00;96191.63;1044000;28;20024;-71
2020/12/01 02:08:57;;;;;;;44.35;22.60;;;;;;;-2.31;100.00;96183.72;1023646;28;20061;-71
2020/12/01 02:09:38;;;;;;;46.42;22.63;;;;;;;-2.30;100.00;96201.84;1035731;28;20061;-71
2020/12/01 02:10:08;;;;;;;48.72;23.33;;;;;;;-2.23;100.00;96202.31;1031829;28;20249;-70
2020/12/01 02:10:39;;;;;;;43.75;22.23;;;;;;;-2.22;100.00;96201.38;1035616;28;20706;-73
2020/12/01 02:11:10;;;;;;;47.38;22.85;;;;;;;-2.19;100.00;96182.16;1031251;28;20536;-71
2020/12/01 02:11:42;;;;;;;45.22;21.02;;;;;;;-2.16;100.00;96192.38;1043855;28;20087;-71
2020/12/01 02:12:14;;;;;;;45.55;22.77;;;;;;;-2.14;100.00;96204.38;1031628;28;20034;-71
2020/12/01 02:12:45;;;;;;;44.08;21.60;;;;;;;-2.16;100.00;96213.16;1035608;28;20291;-72
2020/12/01 02:13:16;;;;;;;47.22;22.80;;;;;;;-2.05;100.00;96202.16;1027699;28;20271;-71
2020/12/01 02:14:00;;;;;;;44.22;21.85;;;;;;;-2.06;100.00;96190.06;1039783;28;20256;-72
2020/12/01 02:14:36;;;;;;;46.60;21.27;;;;;;;-2.09;100.00;96204.94;1039722;28;20049;-72
2020/12/01 02:15:08;;;;;;;44.92;21.63;;;;;;;-2.01;100.00;96203.63;1031549;28;20683;-72
2020/12/01 02:15:39;;;;;;;43.17;22.00;;;;;;;-2.02;100.00;96208.00;1039632;28;20281;-71
2020/12/01 02:16:11;;;;;;;44.13;20.67;;;;;;;-2.09;100.00;96201.47;1031605;28;20293;-72
2020/12/01 02:16:46;;;;;;;48.22;22.65;;;;;;;-2.15;100.00;96196.66;1023611;29;20019;-72
2020/12/01 02:17:28;;;;;;;45.30;21.83;;;;;;;-2.08;100.00;96196.19;1035860;28;20249;-72
2020/12/01 02:17:59;;;;;;;43.55;21.35;;;;;;;-2.10;100.00;96198.03;1032632;28;20325;-71
2020/12/01 02:18:33;;;;;;;43.38;22.23;;;;;;;-2.03;100.00;96201.13;1035728;28;20596;-72
2020/12/01 02:19:06;;;;;;;44.47;21.85;;;;;;;-2.12;100.00;96196.47;1036125;28;20013;-71
2020/12/01 02:19:37;;;;;;;44.78;22.85;;;;;;;-2.15;100.00;96194.88;1032347;28;20706;-72
2020/12/01 02:20:11;;;;;;;44.03;21.85;;;;;;;-2.07;100.00;96191.84;1036566;28;20253;-71
2020/12/01 02:20:42;;;;;;;46.10;22.45;;;;;;;-2.24;100.00;96186.81;1040482;28;20017;-71
2020/12/01 02:21:24;;;;;;;46.53;23.90;;;;;;;-2.20;100.00;96186.50;1032507;28;20344;-72
2020/12/01 02:21:56;;;;;;;45.13;21.17;;;;;;;-2.13;100.00;96186.97;1036580;28;20260;-71
2020/12/01 02:22:27;;;;;;;43.45;21.35;;;;;;;-2.09;100.00;96180.66;1024383;28;20247;-72
2020/12/01 02:22:59;;;;;;;46.20;23.13;;;;;;;-2.15;100.00;96184.47;1032365;28;20246;-71
2020/12/01 02:23:30;;;;;;;49.53;23.45;;;;;;;-2.09;100.00;96186.72;1036600;28;20018;-71
2020/12/01 02:24:02;;;;;;;46.67;22.65;;;;;;;-2.06;100.00;96185.69;1036485;28;20328;-71
2020/12/01 02:24:33;;;;;;;47.65;23.88;;;;;;;-1.99;100.00;96186.16;1032589;28;20006;-71
2020/12/01 02:25:04;;;;;;;47.00;22.58;;;;;;;-2.06;100.00;96177.06;1028439;28;20405;-71
2020/12/01 02:25:35;;;;;;;47.03;23.20;;;;;;;-2.30;100.00;96148.97;1032413;28;20022;-71